sensor_id;sensor_type;location;lat;lon;timestamp;temperature;humidity
33109;HTU21D;19481;51.118;6.940;2023-07-31T00:01:09;17.33;66.89
33109;HTU21D;19481;51.118;6.940;2023-07-31T00:06:12;17.33;66.88
33109;HTU21D;19481;51.118;6.940;2023-07-31T00:11:13;17.34;66.85
33109;HTU21D;19481;51.118;6.940;2023-07-31T00:16:15;17.36;66.94
33109;HTU21D;19481;51.118;6.940;2023-07-31T00:21:18;17.38;66.75
33109;HTU21D;19481;51.118;6.940;2023-07-31T00:26:20;17.39;67.03
33109;HTU21D;19481;51.118;6.940;2023-07-31T00:31:21;17.43;68.71
33109;HTU21D;19481;51.118;6.940;2023-07-31T00:36:24;17.45;66.78
33109;HTU21D;19481;51.118;6.940;2023-07-31T00:41:26;17.43;66.88
33109;HTU21D;19481;51.118;6.940;2023-07-31T00:46:27;17.43;66.91
33109;HTU21D;19481;51.118;6.940;2023-07-31T00:51:30;17.50;66.52
33109;HTU21D;19481;51.118;6.940;2023-07-31T00:56:32;17.48;66.90
33109;HTU21D;19481;51.118;6.940;2023-07-31T01:01:34;17.49;66.78
33109;HTU21D;19481;51.118;6.940;2023-07-31T01:06:43;17.53;66.69
33109;HTU21D;19481;51.118;6.940;2023-07-31T01:11:57;17.52;66.58
33109;HTU21D;19481;51.118;6.940;2023-07-31T01:17:00;17.58;66.25
33109;HTU21D;19481;51.118;6.940;2023-07-31T01:22:20;17.58;68.26
33109;HTU21D;19481;51.118;6.940;2023-07-31T01:27:30;17.59;66.31
33109;HTU21D;19481;51.118;6.940;2023-07-31T01:32:32;17.56;66.31
33109;HTU21D;19481;51.118;6.940;2023-07-31T01:37:34;17.54;66.41
33109;HTU21D;19481;51.118;6.940;2023-07-31T01:42:37;17.59;65.99
33109;HTU21D;19481;51.118;6.940;2023-07-31T01:47:39;17.59;65.98
33109;HTU21D;19481;51.118;6.940;2023-07-31T01:52:40;17.62;65.79
33109;HTU21D;19481;51.118;6.940;2023-07-31T01:57:43;17.64;65.72
33109;HTU21D;19481;51.118;6.940;2023-07-31T02:02:45;17.63;65.84
33109;HTU21D;19481;51.118;6.940;2023-07-31T02:07:47;17.65;65.74
33109;HTU21D;19481;51.118;6.940;2023-07-31T02:12:50;17.64;65.78
33109;HTU21D;19481;51.118;6.940;2023-07-31T02:17:51;17.63;65.78
33109;HTU21D;19481;51.118;6.940;2023-07-31T02:22:53;17.64;65.87
33109;HTU21D;19481;51.118;6.940;2023-07-31T02:27:56;17.65;65.81
33109;HTU21D;19481;51.118;6.940;2023-07-31T02:32:57;17.69;65.75
33109;HTU21D;19481;51.118;6.940;2023-07-31T02:37:59;17.73;65.68
33109;HTU21D;19481;51.118;6.940;2023-07-31T02:43:02;17.81;65.73
33109;HTU21D;19481;51.118;6.940;2023-07-31T02:48:04;17.84;65.32
33109;HTU21D;19481;51.118;6.940;2023-07-31T02:53:05;17.83;65.51
33109;HTU21D;19481;51.118;6.940;2023-07-31T02:58:08;17.87;65.72
33109;HTU21D;19481;51.118;6.940;2023-07-31T03:03:10;17.91;65.43
33109;HTU21D;19481;51.118;6.940;2023-07-31T03:08:11;17.95;65.37
33109;HTU21D;19481;51.118;6.940;2023-07-31T03:13:14;17.97;65.30
33109;HTU21D;19481;51.118;6.940;2023-07-31T03:18:16;17.96;65.39
33109;HTU21D;19481;51.118;6.940;2023-07-31T03:23:18;17.98;65.43
33109;HTU21D;19481;51.118;6.940;2023-07-31T03:28:21;18.02;65.30
33109;HTU21D;19481;51.118;6.940;2023-07-31T03:33:22;18.05;65.25
33109;HTU21D;19481;51.118;6.940;2023-07-31T03:38:24;18.04;65.33
33109;HTU21D;19481;51.118;6.940;2023-07-31T03:43:27;18.06;65.33
33109;HTU21D;19481;51.118;6.940;2023-07-31T03:48:29;17.98;65.76
33109;HTU21D;19481;51.118;6.940;2023-07-31T03:53:31;17.83;66.43
33109;HTU21D;19481;51.118;6.940;2023-07-31T03:58:34;17.74;66.75
33109;HTU21D;19481;51.118;6.940;2023-07-31T04:03:37;17.73;66.72
33109;HTU21D;19481;51.118;6.940;2023-07-31T04:08:38;17.74;66.59
33109;HTU21D;19481;51.118;6.940;2023-07-31T04:13:42;17.76;66.53
33109;HTU21D;19481;51.118;6.940;2023-07-31T04:18:44;17.83;66.84
33109;HTU21D;19481;51.118;6.940;2023-07-31T04:23:45;17.83;66.30
33109;HTU21D;19481;51.118;6.940;2023-07-31T04:28:48;17.87;66.39
33109;HTU21D;19481;51.118;6.940;2023-07-31T04:33:50;17.90;66.24
33109;HTU21D;19481;51.118;6.940;2023-07-31T04:38:51;17.87;66.46
33109;HTU21D;19481;51.118;6.940;2023-07-31T04:43:55;17.87;66.53
33109;HTU21D;19481;51.118;6.940;2023-07-31T04:48:56;17.82;66.68
33109;HTU21D;19481;51.118;6.940;2023-07-31T04:53:58;17.84;66.77
33109;HTU21D;19481;51.118;6.940;2023-07-31T04:59:01;17.85;66.71
33109;HTU21D;19481;51.118;6.940;2023-07-31T05:04:03;17.94;66.46
33109;HTU21D;19481;51.118;6.940;2023-07-31T05:09:04;18.05;66.23
33109;HTU21D;19481;51.118;6.940;2023-07-31T05:14:07;18.12;66.40
33109;HTU21D;19481;51.118;6.940;2023-07-31T05:19:09;18.20;66.17
33109;HTU21D;19481;51.118;6.940;2023-07-31T05:24:11;18.24;66.01
33109;HTU21D;19481;51.118;6.940;2023-07-31T05:29:14;18.29;65.92
33109;HTU21D;19481;51.118;6.940;2023-07-31T05:34:16;18.36;65.83
33109;HTU21D;19481;51.118;6.940;2023-07-31T05:39:18;18.43;65.55
33109;HTU21D;19481;51.118;6.940;2023-07-31T05:44:21;18.48;65.74
33109;HTU21D;19481;51.118;6.940;2023-07-31T05:49:23;18.47;65.62
33109;HTU21D;19481;51.118;6.940;2023-07-31T05:54:24;18.49;65.88
33109;HTU21D;19481;51.118;6.940;2023-07-31T05:59:27;18.49;65.72
33109;HTU21D;19481;51.118;6.940;2023-07-31T06:04:32;18.49;65.60
33109;HTU21D;19481;51.118;6.940;2023-07-31T06:09:34;18.41;65.93
33109;HTU21D;19481;51.118;6.940;2023-07-31T06:14:37;18.23;66.62
33109;HTU21D;19481;51.118;6.940;2023-07-31T06:19:39;18.03;67.49
33109;HTU21D;19481;51.118;6.940;2023-07-31T06:24:40;17.93;67.68
33109;HTU21D;19481;51.118;6.940;2023-07-31T06:29:43;17.79;68.13
33109;HTU21D;19481;51.118;6.940;2023-07-31T06:34:45;17.81;67.88
33109;HTU21D;19481;51.118;6.940;2023-07-31T06:39:46;17.78;68.04
33109;HTU21D;19481;51.118;6.940;2023-07-31T06:44:50;17.85;67.70
33109;HTU21D;19481;51.118;6.940;2023-07-31T06:49:51;17.95;67.43
33109;HTU21D;19481;51.118;6.940;2023-07-31T06:55:00;18.00;67.95
33109;HTU21D;19481;51.118;6.940;2023-07-31T07:00:05;18.04;67.54
33109;HTU21D;19481;51.118;6.940;2023-07-31T07:05:08;18.12;67.27
33109;HTU21D;19481;51.118;6.940;2023-07-31T07:10:10;18.17;67.25
33109;HTU21D;19481;51.118;6.940;2023-07-31T07:15:13;18.21;67.35
33109;HTU21D;19481;51.118;6.940;2023-07-31T07:20:15;18.15;67.50
33109;HTU21D;19481;51.118;6.940;2023-07-31T07:25:16;18.14;67.63
33109;HTU21D;19481;51.118;6.940;2023-07-31T07:30:19;18.10;67.74
33109;HTU21D;19481;51.118;6.940;2023-07-31T07:35:21;18.06;68.00
33109;HTU21D;19481;51.118;6.940;2023-07-31T07:40:22;17.89;68.70
33109;HTU21D;19481;51.118;6.940;2023-07-31T07:45:25;17.83;68.69
33109;HTU21D;19481;51.118;6.940;2023-07-31T07:50:27;17.78;70.19
33109;HTU21D;19481;51.118;6.940;2023-07-31T07:55:28;17.83;68.80
33109;HTU21D;19481;51.118;6.940;2023-07-31T08:00:31;17.87;68.62
33109;HTU21D;19481;51.118;6.940;2023-07-31T08:05:33;17.83;68.98
33109;HTU21D;19481;51.118;6.940;2023-07-31T08:10:35;17.78;69.16
33109;HTU21D;19481;51.118;6.940;2023-07-31T08:15:38;17.70;69.49
33109;HTU21D;19481;51.118;6.940;2023-07-31T08:20:42;17.67;69.59
33109;HTU21D;19481;51.118;6.940;2023-07-31T08:25:45;17.60;69.67
33109;HTU21D;19481;51.118;6.940;2023-07-31T08:30:47;17.67;71.00
33109;HTU21D;19481;51.118;6.940;2023-07-31T08:35:50;17.72;71.50
33109;HTU21D;19481;51.118;6.940;2023-07-31T08:40:52;17.77;68.94
33109;HTU21D;19481;51.118;6.940;2023-07-31T08:45:56;17.88;68.70
33109;HTU21D;19481;51.118;6.940;2023-07-31T08:50:58;17.95;68.69
33109;HTU21D;19481;51.118;6.940;2023-07-31T08:55:59;18.03;68.57
33109;HTU21D;19481;51.118;6.940;2023-07-31T09:01:04;18.26;68.12
33109;HTU21D;19481;51.118;6.940;2023-07-31T09:06:06;18.30;68.13
33109;HTU21D;19481;51.118;6.940;2023-07-31T09:11:08;18.39;68.07
33109;HTU21D;19481;51.118;6.940;2023-07-31T09:16:11;18.38;68.36
33109;HTU21D;19481;51.118;6.940;2023-07-31T09:21:13;18.37;68.58
33109;HTU21D;19481;51.118;6.940;2023-07-31T09:26:29;18.11;71.20
33109;HTU21D;19481;51.118;6.940;2023-07-31T09:31:38;18.02;69.65
33109;HTU21D;19481;51.118;6.940;2023-07-31T09:36:40;17.97;69.67
33109;HTU21D;19481;51.118;6.940;2023-07-31T09:41:43;18.21;68.75
33109;HTU21D;19481;51.118;6.940;2023-07-31T09:46:47;18.40;69.18
33109;HTU21D;19481;51.118;6.940;2023-07-31T09:51:48;18.47;68.58
33109;HTU21D;19481;51.118;6.940;2023-07-31T09:56:50;18.56;67.99
33109;HTU21D;19481;51.118;6.940;2023-07-31T10:01:55;18.53;68.33
33109;HTU21D;19481;51.118;6.940;2023-07-31T10:06:59;18.61;68.26
33109;HTU21D;19481;51.118;6.940;2023-07-31T10:12:04;18.69;68.10
33109;HTU21D;19481;51.118;6.940;2023-07-31T10:17:08;18.70;68.30
33109;HTU21D;19481;51.118;6.940;2023-07-31T10:22:11;18.63;68.46
33109;HTU21D;19481;51.118;6.940;2023-07-31T10:27:13;18.64;68.58
33109;HTU21D;19481;51.118;6.940;2023-07-31T10:32:17;18.54;68.82
33109;HTU21D;19481;51.118;6.940;2023-07-31T10:37:23;18.64;68.87
33109;HTU21D;19481;51.118;6.940;2023-07-31T10:42:29;18.79;68.47
33109;HTU21D;19481;51.118;6.940;2023-07-31T10:47:36;19.11;68.13
33109;HTU21D;19481;51.118;6.940;2023-07-31T10:52:39;19.37;66.84
33109;HTU21D;19481;51.118;6.940;2023-07-31T10:57:44;19.44;67.36
33109;HTU21D;19481;51.118;6.940;2023-07-31T11:02:58;19.56;67.39
33109;HTU21D;19481;51.118;6.940;2023-07-31T11:07:59;19.59;66.55
33109;HTU21D;19481;51.118;6.940;2023-07-31T11:13:04;19.65;66.66
33109;HTU21D;19481;51.118;6.940;2023-07-31T11:18:07;20.01;65.59
33109;HTU21D;19481;51.118;6.940;2023-07-31T11:23:11;20.42;64.59
33109;HTU21D;19481;51.118;6.940;2023-07-31T11:28:14;20.45;64.69
33109;HTU21D;19481;51.118;6.940;2023-07-31T11:33:17;20.46;64.90
33109;HTU21D;19481;51.118;6.940;2023-07-31T11:38:22;20.41;64.76
33109;HTU21D;19481;51.118;6.940;2023-07-31T11:43:25;20.30;65.47
33109;HTU21D;19481;51.118;6.940;2023-07-31T11:48:29;20.66;64.39
33109;HTU21D;19481;51.118;6.940;2023-07-31T11:53:37;20.68;64.42
33109;HTU21D;19481;51.118;6.940;2023-07-31T11:58:41;20.50;64.99
33109;HTU21D;19481;51.118;6.940;2023-07-31T12:03:45;20.56;64.59
33109;HTU21D;19481;51.118;6.940;2023-07-31T12:08:47;20.56;64.43
33109;HTU21D;19481;51.118;6.940;2023-07-31T12:13:49;20.45;64.71
33109;HTU21D;19481;51.118;6.940;2023-07-31T12:18:52;20.46;64.59
33109;HTU21D;19481;51.118;6.940;2023-07-31T12:23:55;20.68;63.95
33109;HTU21D;19481;51.118;6.940;2023-07-31T12:28:58;20.77;63.69
33109;HTU21D;19481;51.118;6.940;2023-07-31T12:34:01;20.86;63.44
33109;HTU21D;19481;51.118;6.940;2023-07-31T12:39:03;20.71;63.89
33109;HTU21D;19481;51.118;6.940;2023-07-31T12:44:05;20.70;63.82
33109;HTU21D;19481;51.118;6.940;2023-07-31T12:49:08;20.76;63.54
33109;HTU21D;19481;51.118;6.940;2023-07-31T12:54:09;20.76;63.56
33109;HTU21D;19481;51.118;6.940;2023-07-31T12:59:11;20.98;63.10
33109;HTU21D;19481;51.118;6.940;2023-07-31T13:04:14;20.91;63.27
33109;HTU21D;19481;51.118;6.940;2023-07-31T13:09:15;20.93;63.11
33109;HTU21D;19481;51.118;6.940;2023-07-31T13:14:17;21.06;62.37
33109;HTU21D;19481;51.118;6.940;2023-07-31T13:19:20;21.05;62.60
33109;HTU21D;19481;51.118;6.940;2023-07-31T13:24:22;20.95;62.86
33109;HTU21D;19481;51.118;6.940;2023-07-31T13:29:24;21.00;62.68
33109;HTU21D;19481;51.118;6.940;2023-07-31T13:34:27;21.40;61.43
33109;HTU21D;19481;51.118;6.940;2023-07-31T13:39:28;21.84;60.28
33109;HTU21D;19481;51.118;6.940;2023-07-31T13:44:30;22.09;59.89
33109;HTU21D;19481;51.118;6.940;2023-07-31T13:49:34;22.35;59.43
33109;HTU21D;19481;51.118;6.940;2023-07-31T13:54:36;22.19;60.51
33109;HTU21D;19481;51.118;6.940;2023-07-31T13:59:37;22.22;58.83
33109;HTU21D;19481;51.118;6.940;2023-07-31T14:04:40;22.29;60.01
33109;HTU21D;19481;51.118;6.940;2023-07-31T14:09:45;22.28;59.81
33109;HTU21D;19481;51.118;6.940;2023-07-31T14:14:48;21.97;61.12
33109;HTU21D;19481;51.118;6.940;2023-07-31T14:19:51;21.73;60.83
33109;HTU21D;19481;51.118;6.940;2023-07-31T14:24:53;21.73;61.41
33109;HTU21D;19481;51.118;6.940;2023-07-31T14:29:54;21.60;61.52
33109;HTU21D;19481;51.118;6.940;2023-07-31T14:34:57;21.65;61.07
33109;HTU21D;19481;51.118;6.940;2023-07-31T14:39:59;21.67;60.81
33109;HTU21D;19481;51.118;6.940;2023-07-31T14:45:01;21.81;60.35
33109;HTU21D;19481;51.118;6.940;2023-07-31T14:50:05;21.75;58.76
33109;HTU21D;19481;51.118;6.940;2023-07-31T14:55:07;21.75;59.30
33109;HTU21D;19481;51.118;6.940;2023-07-31T15:00:10;21.77;59.51
33109;HTU21D;19481;51.118;6.940;2023-07-31T15:05:13;21.87;58.71
33109;HTU21D;19481;51.118;6.940;2023-07-31T15:10:15;21.92;59.15
33109;HTU21D;19481;51.118;6.940;2023-07-31T15:15:16;21.91;59.25
33109;HTU21D;19481;51.118;6.940;2023-07-31T15:20:20;21.75;58.07
33109;HTU21D;19481;51.118;6.940;2023-07-31T15:25:21;21.66;59.48
33109;HTU21D;19481;51.118;6.940;2023-07-31T15:30:24;21.64;59.49
33109;HTU21D;19481;51.118;6.940;2023-07-31T15:35:27;21.53;59.77
33109;HTU21D;19481;51.118;6.940;2023-07-31T15:40:28;21.45;59.03
33109;HTU21D;19481;51.118;6.940;2023-07-31T15:45:30;21.40;58.86
33109;HTU21D;19481;51.118;6.940;2023-07-31T15:50:33;21.40;59.41
33109;HTU21D;19481;51.118;6.940;2023-07-31T15:55:35;21.24;59.40
33109;HTU21D;19481;51.118;6.940;2023-07-31T16:00:37;21.21;59.54
33109;HTU21D;19481;51.118;6.940;2023-07-31T16:05:40;21.11;59.26
33109;HTU21D;19481;51.118;6.940;2023-07-31T16:10:41;21.00;60.11
33109;HTU21D;19481;51.118;6.940;2023-07-31T16:15:43;20.81;60.87
33109;HTU21D;19481;51.118;6.940;2023-07-31T16:20:46;20.30;62.64
33109;HTU21D;19481;51.118;6.940;2023-07-31T16:25:48;19.96;63.19
33109;HTU21D;19481;51.118;6.940;2023-07-31T16:30:50;19.73;63.49
33109;HTU21D;19481;51.118;6.940;2023-07-31T16:35:53;19.69;63.45
33109;HTU21D;19481;51.118;6.940;2023-07-31T16:40:54;19.62;63.66
33109;HTU21D;19481;51.118;6.940;2023-07-31T16:45:56;19.52;63.88
33109;HTU21D;19481;51.118;6.940;2023-07-31T16:50:59;19.50;63.85
33109;HTU21D;19481;51.118;6.940;2023-07-31T16:56:01;19.42;64.06
33109;HTU21D;19481;51.118;6.940;2023-07-31T17:01:03;19.38;64.69
33109;HTU21D;19481;51.118;6.940;2023-07-31T17:06:06;19.21;65.44
33109;HTU21D;19481;51.118;6.940;2023-07-31T17:11:08;18.97;65.64
33109;HTU21D;19481;51.118;6.940;2023-07-31T17:16:09;18.93;65.50
33109;HTU21D;19481;51.118;6.940;2023-07-31T17:21:13;18.78;65.99
33109;HTU21D;19481;51.118;6.940;2023-07-31T17:26:14;18.76;66.20
33109;HTU21D;19481;51.118;6.940;2023-07-31T17:31:16;18.61;67.61
33109;HTU21D;19481;51.118;6.940;2023-07-31T17:36:19;18.43;68.23
33109;HTU21D;19481;51.118;6.940;2023-07-31T17:41:21;18.24;68.53
33109;HTU21D;19481;51.118;6.940;2023-07-31T17:46:24;18.19;68.30
33109;HTU21D;19481;51.118;6.940;2023-07-31T17:51:27;18.08;68.58
33109;HTU21D;19481;51.118;6.940;2023-07-31T17:56:28;18.03;69.06
33109;HTU21D;19481;51.118;6.940;2023-07-31T18:01:32;17.95;70.35
33109;HTU21D;19481;51.118;6.940;2023-07-31T18:06:35;17.97;69.60
33109;HTU21D;19481;51.118;6.940;2023-07-31T18:11:36;17.95;69.55
33109;HTU21D;19481;51.118;6.940;2023-07-31T18:16:38;17.96;69.54
33109;HTU21D;19481;51.118;6.940;2023-07-31T18:21:41;17.90;70.16
33109;HTU21D;19481;51.118;6.940;2023-07-31T18:26:42;17.92;69.68
33109;HTU21D;19481;51.118;6.940;2023-07-31T18:31:44;17.90;70.05
33109;HTU21D;19481;51.118;6.940;2023-07-31T18:36:47;17.87;70.51
33109;HTU21D;19481;51.118;6.940;2023-07-31T18:41:48;17.84;70.77
33109;HTU21D;19481;51.118;6.940;2023-07-31T18:46:50;17.80;70.99
33109;HTU21D;19481;51.118;6.940;2023-07-31T18:51:53;17.80;71.16
33109;HTU21D;19481;51.118;6.940;2023-07-31T18:56:55;17.53;73.98
33109;HTU21D;19481;51.118;6.940;2023-07-31T19:01:56;17.51;73.96
33109;HTU21D;19481;51.118;6.940;2023-07-31T19:06:59;17.51;73.91
33109;HTU21D;19481;51.118;6.940;2023-07-31T19:12:01;17.48;74.51
33109;HTU21D;19481;51.118;6.940;2023-07-31T19:17:03;17.49;73.38
33109;HTU21D;19481;51.118;6.940;2023-07-31T19:22:06;17.47;73.84
33109;HTU21D;19481;51.118;6.940;2023-07-31T19:27:07;17.47;74.23
33109;HTU21D;19481;51.118;6.940;2023-07-31T19:32:09;17.52;73.55
33109;HTU21D;19481;51.118;6.940;2023-07-31T19:37:14;17.53;73.63
33109;HTU21D;19481;51.118;6.940;2023-07-31T19:42:16;17.55;73.25
33109;HTU21D;19481;51.118;6.940;2023-07-31T19:47:18;17.55;73.14
33109;HTU21D;19481;51.118;6.940;2023-07-31T19:52:21;17.60;72.43
33109;HTU21D;19481;51.118;6.940;2023-07-31T19:57:23;17.58;73.31
33109;HTU21D;19481;51.118;6.940;2023-07-31T20:02:24;17.62;72.93
33109;HTU21D;19481;51.118;6.940;2023-07-31T20:07:27;17.65;72.18
33109;HTU21D;19481;51.118;6.940;2023-07-31T20:12:29;17.62;72.80
33109;HTU21D;19481;51.118;6.940;2023-07-31T20:17:31;17.63;72.97
33109;HTU21D;19481;51.118;6.940;2023-07-31T20:22:33;17.65;73.41
33109;HTU21D;19481;51.118;6.940;2023-07-31T20:27:35;17.64;73.18
33109;HTU21D;19481;51.118;6.940;2023-07-31T20:32:37;17.64;72.97
33109;HTU21D;19481;51.118;6.940;2023-07-31T20:37:40;17.68;72.51
33109;HTU21D;19481;51.118;6.940;2023-07-31T20:42:41;17.64;73.23
33109;HTU21D;19481;51.118;6.940;2023-07-31T20:47:43;17.63;73.43
33109;HTU21D;19481;51.118;6.940;2023-07-31T20:52:47;17.63;72.91
33109;HTU21D;19481;51.118;6.940;2023-07-31T20:57:48;17.64;73.12
33109;HTU21D;19481;51.118;6.940;2023-07-31T21:02:50;17.62;73.71
33109;HTU21D;19481;51.118;6.940;2023-07-31T21:07:53;17.63;73.08
33109;HTU21D;19481;51.118;6.940;2023-07-31T21:12:55;17.65;73.11
33109;HTU21D;19481;51.118;6.940;2023-07-31T21:17:57;17.66;73.22
33109;HTU21D;19481;51.118;6.940;2023-07-31T21:23:00;17.67;73.10
33109;HTU21D;19481;51.118;6.940;2023-07-31T21:28:06;17.66;73.58
33109;HTU21D;19481;51.118;6.940;2023-07-31T21:33:07;17.69;73.17
33109;HTU21D;19481;51.118;6.940;2023-07-31T21:38:11;17.67;73.36
33109;HTU21D;19481;51.118;6.940;2023-07-31T21:43:14;17.68;73.28
33109;HTU21D;19481;51.118;6.940;2023-07-31T21:48:15;17.65;73.66
33109;HTU21D;19481;51.118;6.940;2023-07-31T21:53:18;17.62;74.09
33109;HTU21D;19481;51.118;6.940;2023-07-31T21:58:20;17.60;74.27
33109;HTU21D;19481;51.118;6.940;2023-07-31T22:03:21;17.62;73.56
33109;HTU21D;19481;51.118;6.940;2023-07-31T22:08:24;17.58;74.09
33109;HTU21D;19481;51.118;6.940;2023-07-31T22:13:26;17.53;74.65
33109;HTU21D;19481;51.118;6.940;2023-07-31T22:18:27;17.49;74.73
33109;HTU21D;19481;51.118;6.940;2023-07-31T22:23:30;17.47;74.73
33109;HTU21D;19481;51.118;6.940;2023-07-31T22:28:32;17.46;74.63
33109;HTU21D;19481;51.118;6.940;2023-07-31T22:33:34;17.46;75.25
33109;HTU21D;19481;51.118;6.940;2023-07-31T22:38:38;17.45;77.62
33109;HTU21D;19481;51.118;6.940;2023-07-31T22:43:39;17.45;75.20
33109;HTU21D;19481;51.118;6.940;2023-07-31T22:48:41;17.44;75.43
33109;HTU21D;19481;51.118;6.940;2023-07-31T22:53:45;17.43;75.74
33109;HTU21D;19481;51.118;6.940;2023-07-31T22:58:46;17.44;75.37
33109;HTU21D;19481;51.118;6.940;2023-07-31T23:03:48;17.48;75.81
33109;HTU21D;19481;51.118;6.940;2023-07-31T23:08:51;17.51;75.03
33109;HTU21D;19481;51.118;6.940;2023-07-31T23:13:52;17.54;75.04
33109;HTU21D;19481;51.118;6.940;2023-07-31T23:18:54;17.53;75.17
33109;HTU21D;19481;51.118;6.940;2023-07-31T23:23:57;17.50;75.04
33109;HTU21D;19481;51.118;6.940;2023-07-31T23:28:59;17.50;75.15
33109;HTU21D;19481;51.118;6.940;2023-07-31T23:34:01;17.49;75.21
33109;HTU21D;19481;51.118;6.940;2023-07-31T23:39:04;17.48;76.17
33109;HTU21D;19481;51.118;6.940;2023-07-31T23:44:06;17.53;76.53
33109;HTU21D;19481;51.118;6.940;2023-07-31T23:49:08;17.50;75.63
33109;HTU21D;19481;51.118;6.940;2023-07-31T23:54:12;17.49;75.71
33109;HTU21D;19481;51.118;6.940;2023-07-31T23:59:13;17.51;76.28
